Time;durP1;ratioP1;P1;durP2;ratioP2;P2;SDS_P1;SDS_P2;PMS_P1;PMS_P2;Temp;Humidity;BMP_temperature;BMP_pressure;BME280_temperature;BME280_humidity;BME280_pressure;Samples;Min_cycle;Max_cycle;Signal;HPM_P1;HPM_P2
2021/05/19 00:03:07;;;;;;;14.80;8.83;;;;;;;10.12;86.97;98498.47;4216921;83;21037;-84
2021/05/19 00:09:23;;;;;;;16.17;9.23;;;;;;;9.97;86.53;98487.81;4212620;82;21097;-84
2021/05/19 00:15:42;;;;;;;17.65;10.43;;;;;;;9.58;86.87;98491.08;4208919;83;21095;-84
2021/05/19 00:21:52;;;;;;;16.60;9.53;;;;;;;9.41;87.12;98485.52;4111256;85;21073;-84
2021/05/19 00:28:05;;;;;;;14.53;9.08;;;;;;;9.25;87.49;98478.95;4233281;82;21070;-84
2021/05/19 00:34:20;;;;;;;19.92;12.47;;;;;;;9.06;87.97;98486.00;4201792;82;21205;-84
2021/05/19 00:40:26;;;;;;;17.45;11.70;;;;;;;8.99;88.17;98476.37;4224008;83;21131;-83
2021/05/19 00:46:53;;;;;;;19.17;11.08;;;;;;;9.01;88.44;98471.90;4126030;85;21575;-84
2021/05/19 00:52:59;;;;;;;16.75;11.22;;;;;;;9.20;88.74;98468.95;4224409;83;21046;-85
2021/05/19 01:05:49;;;;;;;18.00;11.10;;;;;;;9.15;88.68;98464.62;4139219;84;21046;-83
2021/05/19 01:11:50;;;;;;;16.80;10.70;;;;;;;9.26;88.69;98468.22;4212631;83;21079;-84
2021/05/19 01:17:59;;;;;;;16.12;9.65;;;;;;;9.32;88.58;98476.27;4212059;83;21080;-84
2021/05/19 01:24:06;;;;;;;15.00;9.43;;;;;;;9.32;88.65;98476.84;4216392;83;21341;-83
2021/05/19 01:30:20;;;;;;;19.50;9.28;;;;;;;9.23;88.34;98475.02;4212200;82;21111;-84
2021/05/19 01:36:37;;;;;;;16.97;10.15;;;;;;;9.18;88.33;98478.88;4197852;82;21107;-84
2021/05/19 01:42:52;;;;;;;18.95;9.90;;;;;;;9.00;88.07;98491.61;4196759;83;21044;-84
2021/05/19 01:49:22;;;;;;;16.85;10.32;;;;;;;8.64;88.01;98495.15;4201624;82;21111;-84
2021/05/19 01:55:39;;;;;;;17.70;9.98;;;;;;;8.49;88.16;98499.45;4209160;83;21161;-85
2021/05/19 02:01:43;;;;;;;21.97;11.55;;;;;;;8.36;88.29;98504.95;4211662;82;21549;-85
2021/05/19 02:08:03;;;;;;;18.80;12.88;;;;;;;8.22;88.23;98502.81;4119545;85;21093;-85
2021/05/19 02:14:07;;;;;;;21.57;12.88;;;;;;;8.11;88.72;98512.80;4090722;86;21735;-83
2021/05/19 02:20:18;;;;;;;24.50;13.10;;;;;;;8.17;88.77;98508.59;4212979;84;21093;-83
2021/05/19 02:26:22;;;;;;;18.90;13.43;;;;;;;8.20;88.96;98511.94;4138551;85;21574;-84
2021/05/19 02:32:27;;;;;;;23.38;15.45;;;;;;;8.21;88.67;98507.24;4206914;83;21125;-83
2021/05/19 02:38:31;;;;;;;18.12;12.60;;;;;;;8.11;88.85;98516.89;4159365;84;21114;-83
2021/05/19 02:44:34;;;;;;;29.35;13.22;;;;;;;8.14;89.13;98522.16;4216560;83;21067;-83
2021/05/19 02:50:37;;;;;;;22.77;15.13;;;;;;;8.15;89.13;98512.25;4217750;82;21055;-83
2021/05/19 02:56:42;;;;;;;26.27;15.08;;;;;;;8.05;88.89;98517.57;4145539;85;21079;-84
2021/05/19 03:02:44;;;;;;;24.67;15.32;;;;;;;7.91;89.12;98516.22;4223464;83;21048;-83
2021/05/19 03:08:45;;;;;;;22.07;14.15;;;;;;;7.82;89.07;98514.91;4140839;84;22338;-84
2021/05/19 03:15:05;;;;;;;25.40;15.38;;;;;;;7.75;89.23;98529.81;4221598;82;21073;-84
2021/05/19 03:21:07;;;;;;;24.40;16.42;;;;;;;7.75;89.83;98535.26;4138129;85;21708;-84
2021/05/19 03:27:15;;;;;;;30.40;17.55;;;;;;;7.76;89.61;98531.38;4141939;84;21066;-84
2021/05/19 03:33:19;;;;;;;24.35;16.48;;;;;;;7.82;89.80;98525.25;4139779;84;21094;-84
2021/05/19 03:39:21;;;;;;;24.72;15.45;;;;;;;7.77;89.97;98535.66;4124859;85;21038;-84
2021/05/19 03:45:42;;;;;;;22.30;16.32;;;;;;;7.75;89.85;98537.98;4128458;85;21125;-83
2021/05/19 03:51:43;;;;;;;24.72;16.23;;;;;;;7.59;90.11;98532.69;4133188;85;21079;-84
2021/05/19 03:57:50;;;;;;;26.93;18.37;;;;;;;7.59;90.50;98550.40;4125145;85;21435;-84
2021/05/19 04:04:01;;;;;;;33.13;21.65;;;;;;;7.63;91.03;98562.13;4205394;83;21099;-84
2021/05/19 04:10:03;;;;;;;28.17;17.90;;;;;;;7.83;91.75;98559.50;4167650;84;21096;-83
2021/05/19 04:16:06;;;;;;;32.73;19.85;;;;;;;8.15;91.58;98574.95;4207077;83;21681;-84
2021/05/19 04:22:12;;;;;;;26.40;17.75;;;;;;;8.31;91.42;98580.27;4126149;85;21056;-84
2021/05/19 04:28:23;;;;;;;24.20;17.15;;;;;;;8.54;91.59;98594.02;4191685;83;21618;-84
2021/05/19 04:34:26;;;;;;;21.35;15.38;;;;;;;8.74;91.54;98590.56;4203708;83;21576;-83
2021/05/19 04:40:33;;;;;;;22.02;14.53;;;;;;;8.90;91.64;98597.94;4193186;83;21029;-84
2021/05/19 04:46:38;;;;;;;17.92;12.80;;;;;;;9.07;91.66;98591.89;4205833;83;21110;-84
2021/05/19 04:52:42;;;;;;;22.55;16.42;;;;;;;9.32;91.72;98592.92;4216612;82;21103;-85
2021/05/19 04:58:51;;;;;;;26.50;16.02;;;;;;;9.55;91.62;98599.02;4208837;82;21115;-83
2021/05/19 05:05:03;;;;;;;23.05;17.10;;;;;;;9.65;91.24;98614.70;4203462;82;21529;-84
2021/05/19 05:11:23;;;;;;;27.75;19.17;;;;;;;9.80;91.65;98615.03;4215335;83;21548;-83
2021/05/19 05:17:29;;;;;;;33.45;19.30;;;;;;;9.92;91.64;98621.56;4227614;83;21785;-83
2021/05/19 05:23:33;;;;;;;31.82;24.18;;;;;;;10.04;91.60;98623.22;4192370;82;21540;-83
2021/05/19 05:29:35;;;;;;;31.55;23.83;;;;;;;10.10;91.28;98617.62;4217157;83;21107;-83
2021/05/19 05:35:43;;;;;;;54.58;35.70;;;;;;;10.10;90.95;98628.57;4206943;83;21699;-83
2021/05/19 05:41:45;;;;;;;58.10;36.55;;;;;;;10.03;90.91;98633.94;4213718;83;22063;-83
2021/05/19 05:47:49;;;;;;;53.60;33.92;;;;;;;10.08;90.73;98641.83;4214446;83;21087;-83
2021/05/19 05:54:14;;;;;;;53.98;32.42;;;;;;;10.24;90.43;98639.61;4213760;83;21147;-83
2021/05/19 06:00:43;;;;;;;39.63;25.75;;;;;;;10.43;90.58;98637.97;4226007;83;21753;-84
2021/05/19 06:07:05;;;;;;;33.98;22.75;;;;;;;10.73;90.48;98650.25;4212944;83;21099;-85
2021/05/19 06:13:33;;;;;;;34.95;23.00;;;;;;;11.04;90.21;98653.70;4208673;83;21061;-84
2021/05/19 06:20:01;;;;;;;33.53;23.77;;;;;;;11.24;89.38;98650.06;4196585;83;22305;-85
2021/05/19 06:26:04;;;;;;;34.83;24.15;;;;;;;11.40;89.05;98646.37;4206173;83;21414;-84
2021/05/19 06:39:28;;;;;;;26.05;18.10;;;;;;;12.00;88.43;98634.91;4222060;82;21068;-84
2021/05/19 06:45:50;;;;;;;24.47;17.70;;;;;;;12.40;87.99;98641.93;4213295;83;21752;-85
2021/05/19 06:51:58;;;;;;;21.52;15.45;;;;;;;12.73;87.59;98636.55;4209869;82;21060;-85
2021/05/19 06:58:23;;;;;;;18.50;13.05;;;;;;;13.17;87.34;98643.05;4205616;82;21071;-85
2021/05/19 07:04:24;;;;;;;19.60;14.15;;;;;;;13.49;86.04;98646.43;4216111;82;21151;-86
2021/05/19 07:10:26;;;;;;;22.70;15.43;;;;;;;13.77;85.21;98648.20;4208934;83;21067;-85
2021/05/19 07:23:39;;;;;;;19.42;13.83;;;;;;;14.77;84.20;98644.19;4208225;83;21096;-83
2021/05/19 07:29:47;;;;;;;17.97;12.60;;;;;;;14.78;82.60;98655.38;4136144;83;21084;-84
2021/05/19 07:43:07;;;;;;;13.68;10.28;;;;;;;14.53;82.40;98653.48;4216439;82;21097;-83
2021/05/19 07:56:08;;;;;;;13.70;9.05;;;;;;;14.70;81.72;98660.19;3999328;85;32810;-85
2021/05/19 08:02:36;;;;;;;13.15;9.40;;;;;;;14.70;80.72;98658.02;4056877;86;21126;-84
2021/05/19 08:15:16;;;;;;;10.35;8.90;;;;;;;15.49;79.42;98656.86;4048220;86;21090;-85
2021/05/19 08:21:20;;;;;;;9.18;6.85;;;;;;;15.82;78.71;98646.92;4064082;87;21652;-85
2021/05/19 08:34:12;;;;;;;10.72;7.00;;;;;;;16.21;77.28;98642.17;4058256;85;21104;-85
2021/05/19 08:53:56;;;;;;;8.95;6.37;;;;;;;16.38;75.32;98639.70;4018238;87;21652;-85
2021/05/19 09:20:16;;;;;;;13.93;7.42;;;;;;;16.15;72.48;98633.56;4031663;87;21157;-84
2021/05/19 09:26:20;;;;;;;10.98;7.10;;;;;;;17.06;72.04;98631.09;4035544;86;21074;-85
2021/05/19 09:46:37;;;;;;;8.70;6.15;;;;;;;16.58;69.59;98631.66;4031443;87;21193;-84
2021/05/19 09:53:23;;;;;;;8.50;6.83;;;;;;;16.71;68.40;98625.66;4015542;86;21173;-85
2021/05/19 09:59:43;;;;;;;15.23;8.48;;;;;;;17.41;67.45;98621.27;3946939;87;21134;-84
2021/05/19 10:06:45;;;;;;;;;;;;;;;;;;;;;
2021/05/19 10:13:27;;;;;;;9.90;8.50;;;;;;;18.52;65.35;98603.94;3881700;90;21075;-85
2021/05/19 10:19:46;;;;;;;;;;;;;;;;;;;;;
2021/05/19 10:33:11;;;;;;;10.20;7.78;;;;;;;18.55;61.15;98595.34;3886121;89;21139;-86
2021/05/19 11:13:23;;;;;;;7.00;5.22;;;;;;;20.64;57.01;98578.05;4066053;86;21085;-85
2021/05/19 11:19:36;;;;;;;3.67;3.30;;;;;;;20.65;56.70;98584.39;4056017;86;21081;-85
2021/05/19 11:25:40;;;;;;;7.40;3.10;;;;;;;21.00;56.70;98578.33;4062692;86;21713;-84
2021/05/19 11:32:06;;;;;;;3.77;2.62;;;;;;;21.00;55.12;98576.19;4065545;86;21137;-85
2021/05/19 11:45:23;;;;;;;4.30;3.10;;;;;;;21.25;54.01;98581.59;4017989;87;21078;-86
2021/05/19 11:51:49;;;;;;;5.35;3.83;;;;;;;20.78;53.05;98573.36;3955580;87;21125;-85
2021/05/19 12:04:41;;;;;;;6.08;3.85;;;;;;;19.83;52.88;98561.37;3921029;89;21098;-85
2021/05/19 12:10:49;;;;;;;4.78;4.10;;;;;;;19.42;52.76;98561.50;3923055;89;21138;-86
2021/05/19 12:17:03;;;;;;;6.12;4.65;;;;;;;19.27;52.24;98566.52;3919124;89;22394;-84
2021/05/19 12:23:17;;;;;;;6.97;4.57;;;;;;;19.08;53.57;98567.48;3918085;89;21977;-84
2021/05/19 12:30:20;;;;;;;4.33;3.62;;;;;;;19.32;53.23;98566.78;3792701;92;21117;-85
2021/05/19 12:36:43;;;;;;;5.37;2.92;;;;;;;19.30;53.30;98567.83;3799958;92;21141;-86
2021/05/19 12:43:33;;;;;;;10.25;3.42;;;;;;;19.41;53.70;98557.78;3786583;90;21130;-87
2021/05/19 12:49:50;;;;;;;6.40;3.17;;;;;;;19.72;53.86;98557.38;3919360;89;21597;-85
2021/05/19 12:56:21;;;;;;;6.67;3.02;;;;;;;19.76;53.61;98551.11;3955899;88;21142;-83
2021/05/19 13:02:44;;;;;;;6.17;2.58;;;;;;;19.73;54.32;98553.39;3948775;90;21695;-85
2021/05/19 13:09:06;;;;;;;4.55;2.67;;;;;;;19.68;54.16;98553.95;3946410;88;21616;-85
2021/05/19 13:15:47;;;;;;;5.08;2.70;;;;;;;19.27;53.92;98556.20;3946343;89;21105;-84
2021/05/19 13:22:03;;;;;;;8.55;2.58;;;;;;;19.19;55.29;98558.23;3949333;88;21158;-85
2021/05/19 13:28:07;;;;;;;2.80;2.02;;;;;;;19.28;53.36;98552.22;3940047;88;21128;-85
2021/05/19 13:40:35;;;;;;;7.17;2.62;;;;;;;19.30;53.33;98542.86;3899535;89;21142;-85
2021/05/19 13:46:45;;;;;;;;;;;;;;;19.16;53.19;98547.42;3991799;88;21604;-84
2021/05/19 13:59:47;;;;;;;9.03;2.60;;;;;;;17.48;53.15;98569.33;3974191;88;21088;-84
2021/05/19 14:05:49;;;;;;;4.50;2.30;;;;;;;16.36;54.91;98577.97;3974668;89;21100;-84
2021/05/19 14:12:02;;;;;;;3.87;2.30;;;;;;;15.75;56.66;98578.64;3976864;88;21128;-84
2021/05/19 14:18:43;;;;;;;;;;;;;;;;;;;;;
2021/05/19 14:31:07;;;;;;;4.12;2.85;;;;;;;15.56;60.33;98567.13;3998218;87;21121;-84
2021/05/19 15:02:53;;;;;;;6.47;3.65;;;;;;;15.66;64.03;98587.44;4017907;87;21105;-84
2021/05/19 15:09:04;;;;;;;8.98;4.10;;;;;;;15.27;64.35;98600.99;4021618;86;21532;-84
2021/05/19 15:15:07;;;;;;;7.80;3.80;;;;;;;14.97;63.96;98614.19;4015564;87;21126;-84
2021/05/19 15:21:11;;;;;;;7.72;4.08;;;;;;;14.56;63.88;98611.34;4017304;87;21504;-85
2021/05/19 15:27:14;;;;;;;5.17;3.40;;;;;;;14.39;64.48;98610.35;3955389;88;21014;-84
2021/05/19 15:34:04;;;;;;;4.47;3.02;;;;;;;14.18;64.75;98611.89;3916097;89;21576;-85
2021/05/19 15:40:07;;;;;;;8.88;3.30;;;;;;;14.15;65.25;98612.71;4019317;86;21105;-84
2021/05/19 15:46:09;;;;;;;4.30;3.05;;;;;;;14.09;65.44;98604.09;4025188;87;21118;-83
2021/05/19 15:52:10;;;;;;;7.05;2.62;;;;;;;13.96;65.39;98600.30;4020882;87;21101;-84
2021/05/19 15:58:12;;;;;;;4.33;3.10;;;;;;;14.00;65.44;98595.53;4020431;87;21637;-83
2021/05/19 16:04:16;;;;;;;6.75;3.87;;;;;;;14.01;65.61;98594.95;3961739;88;21470;-84
2021/05/19 16:10:23;;;;;;;5.58;3.17;;;;;;;14.12;65.20;98603.89;4015987;87;21347;-84
2021/05/19 16:16:29;;;;;;;4.33;3.17;;;;;;;14.10;65.06;98613.14;4017147;87;21125;-84
2021/05/19 16:22:35;;;;;;;11.22;3.52;;;;;;;13.92;65.97;98611.16;3957395;88;21607;-83
2021/05/19 16:28:36;;;;;;;3.65;2.52;;;;;;;13.93;65.38;98604.45;4020172;87;21086;-84
2021/05/19 16:34:38;;;;;;;4.05;2.30;;;;;;;13.96;66.19;98610.52;4018897;87;21047;-84
2021/05/19 16:40:39;;;;;;;4.08;2.30;;;;;;;13.92;66.01;98613.29;4016722;84;21078;-83
2021/05/19 16:46:52;;;;;;;6.83;2.40;;;;;;;13.89;65.88;98612.73;4017370;87;21206;-83
2021/05/19 16:53:32;;;;;;;;;;;;;;;;;;;;;
2021/05/19 16:59:31;;;;;;;10.93;4.00;;;;;;;13.62;65.79;98629.66;3777917;91;21522;-82
2021/05/19 17:05:39;;;;;;;7.28;3.40;;;;;;;13.39;65.65;98635.50;4013509;87;21059;-83
2021/05/19 17:11:39;;;;;;;5.53;3.17;;;;;;;13.28;65.75;98637.53;4016428;87;21643;-83
2021/05/19 17:17:41;;;;;;;7.65;3.22;;;;;;;13.17;66.08;98638.17;4018478;86;21145;-83
2021/05/19 17:23:44;;;;;;;9.20;3.40;;;;;;;13.16;66.59;98636.59;3959804;87;21045;-83
2021/05/19 17:30:37;;;;;;;;;;;;;;;;;;;;;
2021/05/19 17:36:37;;;;;;;6.40;2.92;;;;;;;13.25;68.20;98635.58;3923313;88;21117;-84
2021/05/19 17:42:45;;;;;;;5.70;2.92;;;;;;;13.28;68.20;98634.78;4002046;87;21130;-82
2021/05/19 17:48:48;;;;;;;6.40;2.80;;;;;;;13.17;68.36;98634.05;3966131;87;21982;-84
2021/05/19 17:54:54;;;;;;;21.48;10.25;;;;;;;13.12;68.74;98638.58;3941774;89;21153;-82
2021/05/19 18:00:55;;;;;;;9.08;4.42;;;;;;;12.95;68.24;98634.69;4024793;87;21118;-84
2021/05/19 18:07:07;;;;;;;13.28;6.25;;;;;;;12.95;69.42;98627.81;3959587;87;21125;-84
2021/05/19 18:13:09;;;;;;;14.98;8.63;;;;;;;12.93;69.69;98626.66;3920105;89;21271;-84
2021/05/19 18:19:19;;;;;;;19.75;9.75;;;;;;;12.92;70.13;98637.47;4024528;87;21614;-84
2021/05/19 18:25:23;;;;;;;14.13;8.38;;;;;;;12.84;70.30;98643.58;4005868;87;21757;-84
2021/05/19 18:31:31;;;;;;;17.98;10.58;;;;;;;12.76;70.15;98648.11;4017490;87;21170;-83
2021/05/19 18:37:32;;;;;;;23.62;9.50;;;;;;;12.48;70.15;98651.11;3950206;88;21169;-84
2021/05/19 18:43:37;;;;;;;18.30;9.85;;;;;;;12.46;70.90;98661.73;3937594;89;21737;-84
2021/05/19 18:49:42;;;;;;;21.82;12.90;;;;;;;12.45;71.24;98666.22;3919197;89;21033;-84
2021/05/19 18:55:46;;;;;;;23.27;13.15;;;;;;;12.29;71.12;98671.36;4034785;87;22340;-84
2021/05/19 19:01:48;;;;;;;22.45;12.10;;;;;;;12.19;71.58;98670.77;4011270;87;21705;-82
2021/05/19 19:07:50;;;;;;;21.57;12.53;;;;;;;12.21;72.27;98678.02;4030064;87;21113;-83
2021/05/19 19:13:58;;;;;;;21.20;12.28;;;;;;;12.20;72.33;98681.95;4034431;88;21154;-83
2021/05/19 19:20:01;;;;;;;20.20;12.53;;;;;;;12.21;72.54;98678.81;4037202;87;21097;-83
2021/05/19 19:26:08;;;;;;;19.02;10.95;;;;;;;12.11;72.55;98687.82;4009960;88;21254;-83
2021/05/19 19:32:10;;;;;;;20.15;10.30;;;;;;;12.10;72.97;98687.63;4034294;87;21109;-84
2021/05/19 19:38:15;;;;;;;16.20;9.78;;;;;;;12.09;73.29;98692.14;4036328;88;21094;-84
2021/05/19 19:44:25;;;;;;;16.52;9.13;;;;;;;11.96;73.59;98690.95;4017188;87;21165;-84
2021/05/19 19:50:29;;;;;;;18.50;9.85;;;;;;;11.94;73.82;98694.09;3935328;85;10000551;-84
2021/05/19 19:56:47;;;;;;;18.30;9.73;;;;;;;11.88;73.96;98697.60;4072291;86;21124;-84
2021/05/19 20:03:00;;;;;;;17.73;10.53;;;;;;;11.56;73.91;98702.99;4074161;86;21120;-84
2021/05/19 20:09:09;;;;;;;23.10;11.68;;;;;;;11.45;74.26;98709.64;4069425;86;21128;-85
2021/05/19 20:15:15;;;;;;;16.60;9.50;;;;;;;11.23;74.56;98706.02;4071606;86;21145;-84
2021/05/19 20:21:23;;;;;;;17.70;9.75;;;;;;;11.13;75.07;98706.77;4071100;86;21671;-85
2021/05/19 20:27:36;;;;;;;17.90;10.88;;;;;;;10.98;75.25;98710.60;4026253;86;21109;-84
2021/05/19 20:33:38;;;;;;;20.05;11.83;;;;;;;10.88;75.68;98704.50;4048698;87;21101;-84
2021/05/19 20:39:45;;;;;;;17.92;11.53;;;;;;;10.84;75.85;98703.69;4071546;86;21104;-83
2021/05/19 20:45:58;;;;;;;17.65;10.82;;;;;;;10.87;76.31;98707.81;4056797;86;21126;-84
2021/05/19 20:52:00;;;;;;;18.80;10.20;;;;;;;10.71;76.23;98713.41;4038020;87;21050;-84
2021/05/19 20:58:05;;;;;;;18.00;11.45;;;;;;;10.76;76.57;98713.02;4038256;87;21173;-84
2021/05/19 21:04:11;;;;;;;21.57;12.10;;;;;;;10.74;76.89;98719.48;4018352;87;21102;-84
2021/05/19 21:10:22;;;;;;;21.60;11.93;;;;;;;10.65;77.10;98721.75;4037336;87;21133;-83
2021/05/19 21:16:34;;;;;;;18.45;10.95;;;;;;;10.58;77.06;98714.88;4011444;87;21118;-84
2021/05/19 21:22:37;;;;;;;22.40;14.23;;;;;;;10.56;77.23;98724.05;4036478;87;21620;-84
2021/05/19 21:28:39;;;;;;;23.38;15.30;;;;;;;10.47;77.37;98724.97;4038333;87;21082;-84
2021/05/19 21:34:42;;;;;;;24.12;14.15;;;;;;;10.23;77.33;98722.25;4037645;87;21542;-84
2021/05/19 21:40:49;;;;;;;19.27;12.63;;;;;;;10.06;77.66;98727.53;3996699;87;21054;-84
2021/05/19 21:46:57;;;;;;;22.73;14.60;;;;;;;10.02;77.90;98731.62;3992734;87;21106;-84
2021/05/19 21:53:01;;;;;;;24.75;13.95;;;;;;;9.99;78.02;98731.59;3973739;87;21053;-84
2021/05/19 21:59:05;;;;;;;20.43;12.07;;;;;;;10.06;78.87;98728.33;4025048;87;21105;-83
2021/05/19 22:05:08;;;;;;;23.18;12.40;;;;;;;10.08;78.80;98732.08;4004336;87;21143;-83
2021/05/19 22:11:11;;;;;;;15.83;11.45;;;;;;;10.07;79.01;98730.48;4003969;87;21082;-83
2021/05/19 22:17:20;;;;;;;21.57;12.60;;;;;;;10.15;79.13;98737.63;3946923;87;21049;-84
2021/05/19 22:29:33;;;;;;;21.93;13.83;;;;;;;10.16;79.58;98731.78;4024211;87;21098;-84
2021/05/19 22:35:39;;;;;;;25.68;14.75;;;;;;;10.06;79.87;98735.73;4023596;87;21094;-83
2021/05/19 22:41:44;;;;;;;25.08;15.00;;;;;;;10.13;80.16;98742.08;4024034;87;21126;-83
2021/05/19 22:47:52;;;;;;;23.80;15.72;;;;;;;10.27;80.24;98742.80;4053266;86;21095;-84
2021/05/19 22:53:53;;;;;;;24.50;14.25;;;;;;;10.32;80.28;98741.09;4065939;86;21156;-84
2021/05/19 22:59:55;;;;;;;22.77;13.20;;;;;;;10.39;80.43;98736.45;4046947;86;21232;-84
2021/05/19 23:05:59;;;;;;;26.52;16.23;;;;;;;10.39;80.47;98732.34;4066296;86;21054;-84
2021/05/19 23:12:02;;;;;;;22.55;13.95;;;;;;;10.42;80.42;98736.27;4066109;87;21621;-84
2021/05/19 23:18:04;;;;;;;23.60;13.72;;;;;;;10.40;80.65;98729.80;4065953;86;21110;-84
2021/05/19 23:24:06;;;;;;;23.30;13.58;;;;;;;10.41;80.46;98735.50;4065959;86;21073;-84
2021/05/19 23:30:10;;;;;;;24.47;13.95;;;;;;;10.35;80.85;98740.33;4066299;86;21046;-84
2021/05/19 23:36:12;;;;;;;24.92;13.10;;;;;;;10.37;81.07;98737.98;4062271;86;21652;-84
2021/05/19 23:42:18;;;;;;;23.83;14.30;;;;;;;10.27;80.84;98743.59;4065589;86;21058;-84
2021/05/19 23:48:22;;;;;;;23.35;14.20;;;;;;;10.17;81.33;98744.28;4038306;86;21063;-84
2021/05/19 23:54:25;;;;;;;22.42;12.93;;;;;;;10.19;81.29;98742.53;4025983;87;21098;-84
